Terminal Aerodrome Forecast
Issued by NWS

Current Version | Previous Version | Graphics & Text | Print | Product List | Glossary Off
Versions: 1 2 3 4 5 6 7 8 9 10 11 12 13 14 15 16 17 18 19 20 21 22

393
FTUS41 KILN 241727
TAFLUK
TAF
KLUK 241727Z 2418/2518 07006KT P6SM FEW045
     FM250000 00000KT P6SM SKC
     FM250800 00000KT 2SM BR FEW002
      TEMPO 2509/2511 1/2SM FG BKN002
     FM251200 21003KT P6SM FEW045=

USA.gov is the U.S. government's official web portal to all federal, state and local government web resources and services.